Airfield :
LOGIN :

Register | Disclaimer

   EN    FR    IT 

 










Legend :    VFR   Marginal VFR   IFR   Intensive IFR   Very Intensive IFR
Visi :
Ceiling :
>= 8 km
>= 3000ft
5 to 8 km
1000 to 3000 ft
1500m to 5 km
500 to 1000 ft
800 to 1500m
200 to 500 ft
< 800m
< 200 ft
Symbols :   Thunderstorms  Fog  Heavy snow  Heavy precipitations  Wind > 20 kt
SIGMETs :     Misc.  Thunderstorms  Icing  Turbulence  Mountain Waves  Volcanic Ashes






- Airport Elevation : 53 ft
- IATA code : HAM


EDDH - Hamburg

CURRENT METAR :
  • 221950Z 12010KT 9999 BKN011 08/05 Q1009 NOSIG

EXPIRED METARs :
  • 221920Z 12010KT 090V150 9999 BKN012 07/05 Q1009 NOSIG
  • 221850Z 11009KT 9999 SCT008 BKN014 07/05 Q1009 NOSIG
  • 221820Z 10009KT 8000 FEW006 BKN008 BKN016 07/06 Q1009 NOSIG
  • 221750Z 14008KT 110V170 6000 -DZ FEW005 OVC006 07/06 Q1009 NOSIG
  • 221720Z 13011KT 7000 -DZ BKN006 06/05 Q1009 NOSIG

TAF AMD TAF EDDH
Valid from the 22 at 19:00 until the 24 at 00:00 UTC


221908Z 2219/2324 10010KT 8000 BKN006
TEMPO 2219/2221 SCT005 BKN015
PROB40
TEMPO 2221/2309 4500 BR SCT008 BKN015
TEMPO 2309/2324 SCT010 BKN015
PROB30
TEMPO 2310/2313 11015G25KT



MET'MAP, your aeronautical weather chart ! - Copyright ORBIFLY December 2007 - Disclaimer

ORBIFLY MET'MAP TEAM :

Programming & Development : Alexandra Zaïnal
Concept & Development : Baudouin d'Aumeries
Co-Development & Prog : Marc-Olivier Méhu
Technical & hardware support : Manuel Goepfert

Contact : metmap@orbifly.com




SOURCES & CREDITS :

   NOAA